Terminal Aerodrome Forecast
Issued by NWS Upton, NY

Home | Current Version | Previous Version | Text Only | Print | Product List | Glossary On
Versions: 1 2 3 4 5 6 7 8 9 10 11 12 13 14 15 16 17 18 19 20 21 22 23 24 25 26
000
FTUS41 KOKX 232000 AAA
TAFISP
TAF AMD
KISP 232032Z 2321/2418 20012KT P6SM SCT250
      TEMPO 2402/2406 28015G30KT 5SM TSRA BKN050CB
     FM240600 26008KT 5SM SHRA BR BKN040 OVC120
     FM241000 35010KT P6SM BKN050 OVC150=

USA.gov is the U.S. government's official web portal to all federal, state and local government web resources and services.